MSC Agadir — VRLC2 — position and weather

sailwx.info

Track history (hours):
 
Tides and Currents Weather Stations Pressure Air Temp Water Temp Dewpoint Dewpoint Depression Visibility Wind Speed Wind Dir Waves Ship Positions

MSC Agadir

Last reported at 2018-Feb-23 20:30 UTC. Time now 2018-Feb-23 20:36 UTC.
Position S 22°57' W 043°09'.

Length 299 m; draft 13.4 m.

Type: Ship (hazmat cat D). MMSI: 477001100.

Date/timePositionNaut miles runAvg speedWind from/ knotsBaromVisibWave heightAir tempDewpointWater temp
2018-Feb-23 20:30S 22°57' W 043°09'5 9.3
2018-Feb-23 20:00S 22°53' W 043°11'1 2.2
2018-Feb-23 19:30S 22°53' W 043°12'0 0.2
2018-Feb-23 19:00S 22°53' W 043°12'0 0.0
2018-Feb-23 18:30S 22°53' W 043°12'0 0.0
2018-Feb-23 18:00S 22°53' W 043°12'0 0.0
2018-Feb-23 17:30S 22°53' W 043°12'0 0.0
2018-Feb-23 17:00S 22°53' W 043°12'0 0.0
2018-Feb-23 16:30S 22°53' W 043°12'0 0.0
2018-Feb-23 16:00S 22°53' W 043°12'0 0.0
2018-Feb-23 15:30S 22°53' W 043°12'0 0.0
2018-Feb-23 15:00S 22°53' W 043°12'0 0.0
2018-Feb-23 14:30S 22°53' W 043°12'0 0.0
2018-Feb-23 14:00S 22°53' W 043°12'0 0.0
2018-Feb-23 13:30S 22°53' W 043°12'0 0.0
2018-Feb-23 13:00S 22°53' W 043°12'0 0.0
2018-Feb-23 12:30S 22°53' W 043°12'0 0.0
2018-Feb-23 12:00S 22°53' W 043°12'0 0.0
2018-Feb-23 11:30S 22°53' W 043°12'0 0.0
2018-Feb-23 11:00S 22°53' W 043°12'0 0.1
2018-Feb-23 10:30S 22°53' W 043°12'1 2.0
2018-Feb-23 10:00S 22°53' W 043°11'4 7.8
2018-Feb-23 09:31S 22°56' W 043°08'5 9.4
2018-Feb-23 09:00S 23°00' W 043°09'5 9.2
2018-Feb-23 08:30S 23°05' W 043°11'4 8.9
2018-Feb-23 08:00S 23°07' W 043°14'5 9.6
2018-Feb-23 07:29S 23°10' W 043°19'5 9.8
2018-Feb-23 07:00S 23°12' W 043°24'5 9.5
2018-Feb-23 06:30S 23°14' W 043°28'5 9.6
2018-Feb-23 06:00S 23°17' W 043°33'5 9.9
2018-Feb-23 05:30S 23°19' W 043°38'510.0
2018-Feb-23 04:58S 23°21' W 043°43'5 9.7
2018-Feb-23 04:29S 23°23' W 043°47'5 9.5
2018-Feb-23 03:57S 23°26' W 043°52'5 9.4
2018-Feb-23 03:27S 23°28' W 043°57'135 4.8
2018-Feb-21 23:14S 23°55' W 046°21'0 0.0
2018-Feb-21 22:56S 23°55' W 046°21'0 0.0
2018-Feb-21 22:20S 23°55' W 046°21'0 0.0
2018-Feb-21 21:56S 23°55' W 046°21'0 0.0
2018-Feb-21 21:11S 23°55' W 046°21'0 0.0
2018-Feb-21 19:32S 23°55' W 046°21'0 0.0
2018-Feb-21 19:20S 23°55' W 046°21'0 0.0
2018-Feb-21 18:50S 23°55' W 046°21'0 0.0
2018-Feb-21 18:26S 23°55' W 046°21'0 0.0
2018-Feb-21 17:50S 23°55' W 046°21'0 0.0
2018-Feb-21 17:20S 23°55' W 046°21'0 0.0
2018-Feb-21 16:56S 23°55' W 046°21'0 0.0
2018-Feb-21 16:26S 23°55' W 046°21'0 0.0
2018-Feb-21 13:05S 23°55' W 046°21'0 0.0
2018-Feb-21 12:47S 23°55' W 046°21'0 0.0
2018-Feb-21 12:29S 23°55' W 046°21'0 0.0
2018-Feb-21 09:23S 23°55' W 046°21'0 0.0
2018-Feb-21 08:11S 23°55' W 046°21'0 0.0
2018-Feb-21 07:50S 23°55' W 046°21'0 0.0
2018-Feb-21 04:56S 23°55' W 046°21'0 0.0
2018-Feb-21 04:26S 23°55' W 046°21'0 0.0
2018-Feb-21 03:56S 23°55' W 046°21'1 1.8
2018-Feb-21 03:30S 23°55' W 046°20'4 7.4
2018-Feb-21 03:00S 23°58' W 046°18'3 6.4
2018-Feb-21 02:30S 24°00' W 046°20'4 7.8
2018-Feb-21 02:00S 24°04' W 046°22'4 6.5
2018-Feb-21 01:27S 24°07' W 046°22'  
Track history (hours):
 
Tides and Currents Weather Stations Pressure Air Temp Water Temp Dewpoint Dewpoint Depression Visibility Wind Speed Wind Dir Waves Ship Positions

MSC Agadir

Last reported at 2018-Feb-23 20:30 UTC. Time now 2018-Feb-23 20:36 UTC.
Position S 22°57' W 043°09'.

Length 299 m; draft 13.4 m.

Type: Ship (hazmat cat D). MMSI: 477001100.

Date/timePositionNaut miles runAvg speedWind from/ knotsBaromVisibWave heightAir tempDewpointWater temp
2018-Feb-23 20:30S 22°57' W 043°09'5 9.3
2018-Feb-23 20:00S 22°53' W 043°11'1 2.2
2018-Feb-23 19:30S 22°53' W 043°12'0 0.2
2018-Feb-23 19:00S 22°53' W 043°12'0 0.0
2018-Feb-23 18:30S 22°53' W 043°12'0 0.0
2018-Feb-23 18:00S 22°53' W 043°12'0 0.0
2018-Feb-23 17:30S 22°53' W 043°12'0 0.0
2018-Feb-23 17:00S 22°53' W 043°12'0 0.0
2018-Feb-23 16:30S 22°53' W 043°12'0 0.0
2018-Feb-23 16:00S 22°53' W 043°12'0 0.0
2018-Feb-23 15:30S 22°53' W 043°12'0 0.0
2018-Feb-23 15:00S 22°53' W 043°12'0 0.0
2018-Feb-23 14:30S 22°53' W 043°12'0 0.0
2018-Feb-23 14:00S 22°53' W 043°12'0 0.0
2018-Feb-23 13:30S 22°53' W 043°12'0 0.0
2018-Feb-23 13:00S 22°53' W 043°12'0 0.0
2018-Feb-23 12:30S 22°53' W 043°12'0 0.0
2018-Feb-23 12:00S 22°53' W 043°12'0 0.0
2018-Feb-23 11:30S 22°53' W 043°12'0 0.0
2018-Feb-23 11:00S 22°53' W 043°12'0 0.1
2018-Feb-23 10:30S 22°53' W 043°12'1 2.0
2018-Feb-23 10:00S 22°53' W 043°11'4 7.8
2018-Feb-23 09:31S 22°56' W 043°08'5 9.4
2018-Feb-23 09:00S 23°00' W 043°09'5 9.2
2018-Feb-23 08:30S 23°05' W 043°11'4 8.9
2018-Feb-23 08:00S 23°07' W 043°14'5 9.6
2018-Feb-23 07:29S 23°10' W 043°19'5 9.8
2018-Feb-23 07:00S 23°12' W 043°24'5 9.5
2018-Feb-23 06:30S 23°14' W 043°28'5 9.6
2018-Feb-23 06:00S 23°17' W 043°33'5 9.9
2018-Feb-23 05:30S 23°19' W 043°38'510.0
2018-Feb-23 04:58S 23°21' W 043°43'5 9.7
2018-Feb-23 04:29S 23°23' W 043°47'5 9.5
2018-Feb-23 03:57S 23°26' W 043°52'5 9.4
2018-Feb-23 03:27S 23°28' W 043°57'135 4.8
2018-Feb-21 23:14S 23°55' W 046°21'0 0.0
2018-Feb-21 22:56S 23°55' W 046°21'0 0.0
2018-Feb-21 22:20S 23°55' W 046°21'0 0.0
2018-Feb-21 21:56S 23°55' W 046°21'0 0.0
2018-Feb-21 21:11S 23°55' W 046°21'0 0.0
2018-Feb-21 19:32S 23°55' W 046°21'0 0.0
2018-Feb-21 19:20S 23°55' W 046°21'0 0.0
2018-Feb-21 18:50S 23°55' W 046°21'0 0.0
2018-Feb-21 18:26S 23°55' W 046°21'0 0.0
2018-Feb-21 17:50S 23°55' W 046°21'0 0.0
2018-Feb-21 17:20S 23°55' W 046°21'0 0.0
2018-Feb-21 16:56S 23°55' W 046°21'0 0.0
2018-Feb-21 16:26S 23°55' W 046°21'0 0.0
2018-Feb-21 13:05S 23°55' W 046°21'0 0.0
2018-Feb-21 12:47S 23°55' W 046°21'0 0.0
2018-Feb-21 12:29S 23°55' W 046°21'0 0.0
2018-Feb-21 09:23S 23°55' W 046°21'0 0.0
2018-Feb-21 08:11S 23°55' W 046°21'0 0.0
2018-Feb-21 07:50S 23°55' W 046°21'0 0.0
2018-Feb-21 04:56S 23°55' W 046°21'0 0.0
2018-Feb-21 04:26S 23°55' W 046°21'0 0.0
2018-Feb-21 03:56S 23°55' W 046°21'1 1.8
2018-Feb-21 03:30S 23°55' W 046°20'4 7.4
2018-Feb-21 03:00S 23°58' W 046°18'3 6.4
2018-Feb-21 02:30S 24°00' W 046°20'4 7.8
2018-Feb-21 02:00S 24°04' W 046°22'4 6.5
2018-Feb-21 01:27S 24°07' W 046°22'  

Dump ship's entire track history